Map

Track Data

SID SEASON NUMBER BASIN SUBBASIN NAME ISO_TIME NATURE LAT LON WMO_WIND WMO_PRES WMO_AGENCY TRACK_TYPE DIST2LAND LANDFALL IFLAG USA_AGENCY USA_ATCF_ID USA_LAT USA_LON USA_RECORD USA_STATUS USA_WIND USA_PRES USA_SSHS USA_R34_NE USA_R34_SE USA_R34_SW USA_R34_NW USA_R50_NE USA_R50_SE USA_R50_SW USA_R50_NW USA_R64_NE USA_R64_SE USA_R64_SW USA_R64_NW USA_POCI USA_ROCI USA_RMW USA_EYE TOKYO_LAT TOKYO_LON TOKYO_GRADE TOKYO_WIND TOKYO_PRES TOKYO_R50_DIR TOKYO_R50_LONG TOKYO_R50_SHORT TOKYO_R30_DIR TOKYO_R30_LONG TOKYO_R30_SHORT TOKYO_LAND CMA_LAT CMA_LON CMA_CAT CMA_WIND CMA_PRES HKO_LAT HKO_LON HKO_CAT HKO_WIND HKO_PRES NEWDELHI_LAT NEWDELHI_LON NEWDELHI_GRADE NEWDELHI_WIND NEWDELHI_PRES NEWDELHI_CI NEWDELHI_DP NEWDELHI_POCI REUNION_LAT REUNION_LON REUNION_TYPE REUNION_WIND REUNION_PRES REUNION_TNUM REUNION_CI REUNION_RMW REUNION_R34_NE REUNION_R34_SE REUNION_R34_SW REUNION_R34_NW REUNION_R50_NE REUNION_R50_SE REUNION_R50_SW REUNION_R50_NW REUNION_R64_NE REUNION_R64_SE REUNION_R64_SW REUNION_R64_NW BOM_LAT BOM_LON BOM_TYPE BOM_WIND BOM_PRES BOM_TNUM BOM_CI BOM_RMW BOM_R34_NE BOM_R34_SE BOM_R34_SW BOM_R34_NW BOM_R50_NE BOM_R50_SE BOM_R50_SW BOM_R50_NW BOM_R64_NE BOM_R64_SE BOM_R64_SW BOM_R64_NW BOM_ROCI BOM_POCI BOM_EYE BOM_POS_METHOD BOM_PRES_METHOD NADI_LAT NADI_LON NADI_CAT NADI_WIND NADI_PRES WELLINGTON_LAT WELLINGTON_LON WELLINGTON_WIND WELLINGTON_PRES DS824_LAT DS824_LON DS824_STAGE DS824_WIND DS824_PRES TD9636_LAT TD9636_LON TD9636_STAGE TD9636_WIND TD9636_PRES TD9635_LAT TD9635_LON TD9635_WIND TD9635_PRES TD9635_ROCI NEUMANN_LAT NEUMANN_LON NEUMANN_CLASS NEUMANN_WIND NEUMANN_PRES MLC_LAT MLC_LON MLC_CLASS MLC_WIND MLC_PRES USA_GUST BOM_GUST BOM_GUST_PER REUNION_GUST REUNION_GUST_PER USA_SEAHGT USA_SEARAD_NE USA_SEARAD_SE USA_SEARAD_SW USA_SEARAD_NW STORM_SPEED STORM_DIR
1996007S10100 1996 3 SI WA CORYNA:HUBERT 1996-01-06 22:00:00 NR -10.2000 99.6000 20 1006 bom main 724 724 ______O_______ -1 -10.2000 99.6000 20 20 1006 1.50000 161 3 5 12 244
1996007S10100 1996 3 SI WA CORYNA:HUBERT 1996-01-07 00:00:00 TS -10.3784 99.2235 main 773 773 O_____P_____O_ jtwc_sh SH071996 -10.5000 99.2000 20 -1 -10.2568 99.2469 20 23 1004 161 -10.5000 99.2000 TC 20 11 243
1996007S10100 1996 3 SI WA CORYNA:HUBERT 1996-01-07 01:00:00 TS -10.4371 99.1191 25 1004 bom main 779 779 P_____O_____P_ SH071996 -10.5398 99.1334 20 -1 -10.3000 99.1000 20 25 1004 2.00000 161 3 5 -10.5398 99.1334 TC 20 6 238
1996007S10100 1996 3 SI WA CORYNA:HUBERT 1996-01-07 03:00:00 TS -10.5402 98.9557 main 795 795 P_____P_____P_ SH071996 -10.6151 99.0001 22 -1 -10.4279 98.8891 20 25 1002 161 -10.6151 99.0001 TC 22 6 235
1996007S10100 1996 3 SI WA CORYNA:HUBERT 1996-01-07 04:00:00 TS -10.5988 98.8889 25 1002 bom main 810 810 P_____O_____P_ SH071996 -10.6482 98.9334 23 -1 -10.5000 98.8000 20 25 1002 2.00000 161 3 5 -10.6482 98.9334 TC 23 5 238
1996007S10100 1996 3 SI WA CORYNA:HUBERT 1996-01-07 06:00:00 TS -10.6778 98.7333 main 833 833 O_____P_____O_ jtwc_sh SH071996 -10.7000 98.8000 25 -1 -10.6333 98.6000 20 28 1000 161 -10.7000 98.8000 TC 25 5 244
1996007S10100 1996 3 SI WA CORYNA:HUBERT 1996-01-07 07:00:00 TS -10.7114 98.6552 30 1000 bom main 833 833 P_____O_____P_ SH071996 -10.7171 98.7328 26 -1 -10.7000 98.5000 20 30 1000 2.50000 161 3 5 -10.7171 98.7328 TC 26 5 247
1996007S10100 1996 3 SI WA CORYNA:HUBERT 1996-01-07 09:00:00 TS -10.7753 98.4942 main 855 855 P_____P_____P_ SH071996 -10.7424 98.5874 30 -1 -10.8412 98.3079 20 30 998 161 -10.7424 98.5874 TC 30 5 249
1996007S10100 1996 3 SI WA CORYNA:HUBERT 1996-01-07 10:00:00 TS -10.8041 98.4024 30 998 bom main 862 862 P_____O_____P_ SH071996 -10.7562 98.5036 31 -1 -10.9000 98.2000 20 30 998 2.50000 161 3 5 -10.7562 98.5036 TC 31 6 255
1996007S10100 1996 3 SI WA CORYNA:HUBERT 1996-01-07 12:00:00 TS -10.8574 98.1770 main 884 884 O_____P_____O_ jtwc_sh SH071996 -10.8000 98.3000 35 0 -10.9721 97.9309 20 33 996 161 -10.8000 98.3000 TC 35 7 256
1996007S10100 1996 3 SI WA CORYNA:HUBERT 1996-01-07 13:00:00 TS -10.8924 98.0486 35 995 bom main 897 897 P_____O_____P_ SH071996 -10.8386 98.1729 36 0 -11.0000 97.8000 30 35 995 3.00000 161 3 5 -10.8386 98.1729 TC 36 8 252
1996007S10100 1996 3 SI WA CORYNA:HUBERT 1996-01-07 15:00:00 TS -10.9789 97.7875 main 919 919 P_____P_____P_ SH071996 -10.9350 97.8800 40 0 -11.0666 97.6025 30 38 991 161 -10.9350 97.8800 TC 40 8 251
1996007S10100 1996 3 SI WA CORYNA:HUBERT 1996-01-07 16:00:00 TS -11.0261 97.6479 40 990 bom main 933 933 P_____O_____P_ SH071996 -10.9892 97.7218 41 0 -11.1000 97.5000 30 40 990 3.00000 161 3 5 -10.9892 97.7218 TC 41 9 252
1996007S10100 1996 3 SI WA CORYNA:HUBERT 1996-01-07 18:00:00 TS -11.1222 97.3463 main 963 963 O_____P_____O_ jtwc_sh SH071996 -11.1000 97.4000 45 0 -11.1667 97.2388 30 46 986 161 -11.1000 97.4000 TC 45 9 252
1996007S10100 1996 3 SI WA CORYNA:HUBERT 1996-01-07 19:00:00 TS -11.1666 97.2000 50 985 bom main 978 978 P_____O_____P_ SH071996 -11.1500 97.2500 46 0 -11.2000 97.1000 30 50 985 3.50000 161 3 5 -11.1500 97.2500 TC 46 9 253
1996007S10100 1996 3 SI WA CORYNA:HUBERT 1996-01-07 21:00:00 TS -11.2555 96.9084 main 1008 1008 P_____P_____P_ SH071996 -11.2499 96.9500 50 0 -11.2667 96.8254 30 53 981 161 -11.2499 96.9500 TC 50 9 253
1996007S10100 1996 3 SI WA CORYNA:HUBERT 1996-01-07 22:00:00 TS -11.3000 96.7666 55 980 bom main 1015 1015 P_____O_____P_ SH071996 -11.2999 96.8000 51 0 -11.3000 96.7000 30 55 980 4.00000 161 3 5 -11.2999 96.8000 TC 51 8 252
1996007S10100 1996 3 SI WA CORYNA:HUBERT 1996-01-08 00:00:00 TS -11.3889 96.5008 main 1046 1046 O_____P_____O_ jtwc_sh SH071996 -11.4000 96.5000 55 0 -11.3666 96.5025 30 58 976 161 -11.4000 96.5000 TC 55 8 251
1996007S10100 1996 3 SI WA CORYNA:HUBERT 1996-01-08 01:00:00 TS -11.4315 96.3684 60 975 bom main 1053 1053 P_____O_____P_ SH071996 -11.4473 96.3526 55 0 -11.4000 96.4000 30 60 975 4.00000 161 3 5 -11.4473 96.3526 TC 55 9 253
1996007S10100 1996 3 SI WA CORYNA:HUBERT 1996-01-08 03:00:00 TS -11.5119 96.0845 main 1082 1082 P_____P_____P_ SH071996 -11.5424 96.0574 57 0 -11.4509 96.1387 30 63 971 161 -11.5424 96.0574 TC 57 9 253
1996007S10100 1996 3 SI WA CORYNA:HUBERT 1996-01-08 04:00:00 TS -11.5613 95.9385 65 970 bom main 1105 1105 P_____O_____P_ SH071996 -11.5920 95.9078 58 0 -11.5000 96.0000 40 65 970 4.50000 161 4 4 5 -11.5920 95.9078 TC 58 9 247
1996007S10100 1996 3 SI WA CORYNA:HUBERT 1996-01-08 06:00:00 TS -11.6990 95.6445 main 1135 1135 O_____P_____O_ jtwc_sh SH071996 -11.7000 95.6000 60 0 -11.6970 95.7334 40 65 970 161 -11.7000 95.6000 TC 60 10 244
1996007S10100 1996 3 SI WA CORYNA:HUBERT 1996-01-08 07:00:00 TS -11.7704 95.4944 65 970 bom main 1150 1150 P_____O_____P_ SH071996 -11.7557 95.4416 60 0 -11.8000 95.6000 40 65 970 4.50000 161 3 4 5 -11.7557 95.4416 TC 60 10 246
1996007S10100 1996 3 SI WA CORYNA:HUBERT 1996-01-08 09:00:00 TS -11.8978 95.1956 main 1180 1180 P_____P_____P_ SH071996 -11.8774 95.1149 62 0 -11.9387 95.3570 40 68 966 161 -11.8774 95.1149 TC 62 10 247
1996007S10100 1996 3 SI WA CORYNA:HUBERT 1996-01-08 10:00:00 TS -11.9636 95.0310 70 965 bom main 1203 1203 P_____O_____P_ SH071996 -11.9453 94.9465 63 0 -12.0000 95.2000 40 70 965 4.50000 161 3 5 -11.9453 94.9465 TC 63 12 249
1996007S10100 1996 3 SI WA CORYNA:HUBERT 1996-01-08 12:00:00 TS -12.1085 94.6446 main 1241 1241 O_____P_____O_ jtwc_sh SH071996 -12.1000 94.6000 65 1 -12.1255 94.7338 40 70 965 178 -12.1000 94.6000 TC 65 12 248
1996007S10100 1996 3 SI WA CORYNA:HUBERT 1996-01-08 13:00:00 TS -12.1924 94.4482 70 965 bom main 1264 1264 P_____O_____P_ SH071996 -12.1885 94.4224 65 1 -12.2000 94.5000 40 70 965 4.50000 188 3 4 5 -12.1885 94.4224 TC 65 12 243
1996007S10100 1996 3 SI WA CORYNA:HUBERT 1996-01-08 15:00:00 TS -12.3855 94.0902 main 1303 1303 P_____P_____P_ SH071996 -12.3849 94.0575 67 1 -12.3866 94.1558 40 70 965 188 -12.3849 94.0575 TC 67 12 240
1996007S10100 1996 3 SI WA CORYNA:HUBERT 1996-01-08 16:00:00 TS -12.4927 93.9147 70 965 bom main 1327 1327 P_____O_____P_ SH071996 -12.4891 93.8721 68 1 -12.5000 94.0000 40 70 965 4.50000 188 3 5 -12.4891 93.8721 TC 68 12 237
1996007S10100 1996 3 SI WA CORYNA:HUBERT 1996-01-08 18:00:00 TS -12.7230 93.5582 main 1363 1363 O_____P_____O_ jtwc_sh SH071996 -12.7000 93.5000 70 1 -12.7691 93.6746 40 70 965 188 -12.7000 93.5000 TC 70 13 237
1996007S10100 1996 3 SI WA CORYNA:HUBERT 1996-01-08 19:00:00 TS -12.8333 93.3777 70 965 bom main 1383 1383 P_____O_____P_ SH071996 -12.7999 93.3166 70 1 -12.9000 93.5000 40 70 965 4.50000 188 3 5 -12.7999 93.3166 TC 70 13 240
1996007S10100 1996 3 SI WA CORYNA:HUBERT 1996-01-08 21:00:00 TS -13.0324 92.9991 main 1423 1423 P_____P_____P_ SH071996 -12.9999 92.9499 72 1 -13.0975 93.0975 40 73 961 188 -12.9999 92.9499 TC 72 13 241
1996007S10100 1996 3 SI WA CORYNA:HUBERT 1996-01-08 22:00:00 TS -13.1333 92.8110 75 960 bom main 1443 1443 P_____O_____P_ SH071996 -13.0999 92.7666 73 1 -13.2000 92.9000 40 75 960 4.50000 188 3 5 -13.0999 92.7666 TC 73 12 237
1996007S10100 1996 3 SI WA CORYNA:HUBERT 1996-01-09 00:00:00 TS -13.3646 92.4751 main 1488 1488 O____OP_____O_ jtwc_sh SH071996 -13.3000 92.4000 75 1 -13.4000 92.7000 3 62 965 4.50000 4.50000 -13.4849 92.5692 40 75 960 188 -13.3000 92.4000 TC 75 12 236
1996007S10100 1996 3 SI WA CORYNA:HUBERT 1996-01-09 01:00:00 TS -13.4703 92.3030 75 960 bom main 1508 1508 P____PO_____P_ SH071996 -13.4052 92.2140 75 1 -13.4713 92.4647 3 62 965 -13.6000 92.4000 40 75 960 4.50000 188 3 4 5 -13.4052 92.2140 TC 75 12 244
1996007S10100 1996 3 SI WA CORYNA:HUBERT 1996-01-09 03:00:00 TS -13.6322 91.9144 main 1539 1539 P____PP_____P_ SH071996 -13.6149 91.8425 75 1 -13.6104 91.9953 3 62 965 -13.6830 91.9975 40 75 960 188 -13.6149 91.8425 TC 75 12 248
1996007S10100 1996 3 SI WA CORYNA:HUBERT 1996-01-09 04:00:00 TS -13.7021 91.7199 75 960 bom main 1560 1560 P____PO_____P_ SH071996 -13.7157 91.6588 75 1 -13.6768 91.7619 3 62 965 -13.7000 91.8000 40 75 960 4.50000 188 3 5 -13.7157 91.6588 TC 75 12 249
1996007S10100 1996 3 SI WA CORYNA:HUBERT 1996-01-09 06:00:00 TS -13.8436 91.3403 main 1592 1592 O____OP_____O_ jtwc_sh SH071996 -13.9000 91.3000 75 1 -13.8000 91.3000 3 62 965 4.00000 4.50000 -13.7745 91.4613 40 78 956 188 -13.9000 91.3000 TC 75 12 250
1996007S10100 1996 3 SI WA CORYNA:HUBERT 1996-01-09 07:00:00 TS -13.9042 91.1542 80 955 bom main 1608 1608 P____PO_____P_ SH071996 -13.9807 91.1223 75 1 -13.8556 91.0723 3 61 965 -13.8000 91.3000 40 80 955 4.50000 188 3 5 -13.9807 91.1223 TC 75 11 254
1996007S10100 1996 3 SI WA CORYNA:HUBERT 1996-01-09 09:00:00 TS -14.0019 90.7872 main 1640 1640 P____PP_____P_ SH071996 -14.1224 90.7774 75 1 -13.9574 90.6274 3 61 967 -13.8054 90.9667 40 80 958 188 -14.1224 90.7774 TC 75 11 255
1996007S10100 1996 3 SI WA CORYNA:HUBERT 1996-01-09 10:00:00 TS -14.0440 90.6090 80 960 bom main 1653 1653 P____PO_____P_ SH071996 -14.1854 90.6120 75 1 -14.0053 90.4120 3 60 968 -13.8000 90.8000 40 80 960 4.50000 188 3 5 -14.1854 90.6120 TC 75 10 257
1996007S10100 1996 3 SI WA CORYNA:HUBERT 1996-01-09 12:00:00 TS -14.1230 90.2667 main 1680 1680 O____OP_____O_ jtwc_sh SH071996 -14.3000 90.3000 75 1 -14.1000 90.0000 3 60 970 3.50000 4.50000 -13.7921 90.4667 40 76 963 188 -14.3000 90.3000 TC 75 10 256
1996007S10100 1996 3 SI WA CORYNA:HUBERT 1996-01-09 13:00:00 TS -14.1653 90.1039 75 965 bom main 1702 1702 P____PO_____P_ SH071996 -14.3556 90.1578 75 1 -14.1499 89.8000 3 59 970 -13.8000 90.3000 40 75 965 4.50000 188 3 5 -14.3556 90.1578 TC 75 10 254
1996007S10100 1996 3 SI MM CORYNA:HUBERT 1996-01-09 15:00:00 TS -14.2564 89.7928 main 1730 1730 P____PP_____P_ SH071996 -14.4573 89.8924 75 1 -14.2499 89.4199 3 57 972 -13.8612 89.9667 40 68 968 170 -14.4573 89.8924 TC 75 9 253
1996007S10100 1996 3 SI MM CORYNA:HUBERT 1996-01-09 16:00:00 TS -14.3026 89.6418 main 1743 1743 P____PO_____P_ SH071996 -14.5053 89.7636 75 1 -14.2999 89.2400 3 56 973 -13.9000 89.8000 40 65 970 4.50000 161 3 5 -14.5053 89.7636 TC 75 9 253
1996007S10100 1996 3 SI MM CORYNA:HUBERT 1996-01-09 18:00:00 TS -14.3897 89.3417 55 975 reunion main 1771 1771 O____OP_____O_ jtwc_sh SH071996 -14.6000 89.5000 75 1 -14.4000 88.9000 3 55 975 3.50000 4.00000 -13.9587 89.4666 40 61 973 161 -14.6000 89.5000 TC 75 9 252
1996007S10100 1996 3 SI MM CORYNA:HUBERT 1996-01-09 19:00:00 TS -14.4421 89.1862 main 1778 1778 P____PO_____P_ SH071996 -14.6552 89.3583 75 1 -14.4578 88.7281 3 54 975 -14.0000 89.3000 30 60 975 5.00000 161 3 5 -14.6552 89.3583 TC 75 10 250
1996007S10100 1996 3 SI MM CORYNA:HUBERT 1996-01-09 21:00:00 TS -14.5575 88.8755 main 1815 1815 P____PP_____P_ SH071996 -14.7649 89.0650 75 1 -14.5725 88.4051 3 52 977 -14.1279 88.9667 30 60 975 161 -14.7649 89.0650 TC 75 10 249
1996007S10100 1996 3 SI MM CORYNA:HUBERT 1996-01-09 22:00:00 TS -14.6138 88.7211 main 1828 1828 P____PO_____P_ SH071996 -14.8157 88.9134 75 1 -14.6237 88.2576 3 51 978 -14.2000 88.8000 30 60 975 5.00000 161 3 5 -14.8157 88.9134 TC 75 9 251
1996007S10100 1996 3 SI MM CORYNA:HUBERT 1996-01-10 00:00:00 TS -14.7083 88.4186 50 980 reunion main 1858 1858 O____OP_____O_ jtwc_sh SH071996 -14.9000 88.6000 75 1 -14.7000 88.0000 3 50 980 3.50000 4.00000 -14.3333 88.4745 30 56 978 161 -14.9000 88.6000 TC 75 9 253
1996007S10100 1996 3 SI MM CORYNA:HUBERT 1996-01-10 01:00:00 TS -14.7472 88.2712 main 1864 1864 P____PO_____P_ SH071996 -14.9359 88.4390 74 1 -14.7170 87.9069 3 49 980 -14.4000 88.3000 30 55 980 4.50000 161 3 5 -14.9359 88.4390 TC 74 9 257
1996007S10100 1996 3 SI MM CORYNA:HUBERT 1996-01-10 03:00:00 TS -14.8076 87.9695 main 1894 1894 P____PP_____P_ SH071996 -14.9874 88.1075 72 1 -14.7222 87.7574 3 47 982 -14.5333 87.9054 30 55 980 143 -14.9874 88.1075 TC 72 9 259
1996007S10100 1996 3 SI MM CORYNA:HUBERT 1996-01-10 04:00:00 TS -14.8296 87.8155 main 1908 1908 P____PO_____P_ SH071996 -15.0012 87.9388 71 1 -14.7160 87.6844 3 46 983 -14.6000 87.7000 30 55 980 4.50000 134 3 5 -15.0012 87.9388 TC 71 9 263
1996007S10100 1996 3 SI MM CORYNA:HUBERT 1996-01-10 06:00:00 TS -14.8623 87.5040 45 985 reunion main 1937 1937 O____OP_____O_ jtwc_sh SH071996 -15.0000 87.6000 70 1 -14.7000 87.5000 3 45 985 3.00000 3.50000 -14.7490 87.3158 30 51 983 134 -15.0000 87.6000 TC 70 9 265
1996007S10100 1996 3 SI MM CORYNA:HUBERT 1996-01-10 07:00:00 TS -14.8695 87.3354 main 1952 1952 P____PO_____P_ SH071996 -14.9863 87.4359 68 1 -14.7052 87.3698 3 44 985 -14.8000 87.1000 30 50 985 4.00000 134 4 5 -14.9863 87.4359 TC 68 11 272
1996007S10100 1996 3 SI MM CORYNA:HUBERT 1996-01-10 09:00:00 TS -14.8464 86.9552 main 1965 1965 P____PP_____P_ SH071996 -14.9298 87.1075 65 1 -14.7149 87.0601 3 42 986 -14.8110 86.5459 30 50 985 134 -14.9298 87.1075 TC 65 11 275
1996007S10100 1996 3 SI MM CORYNA:HUBERT 1996-01-10 10:00:00 TS -14.8243 86.7667 main 1980 1980 P____PO_____P_ SH071996 -14.8907 86.9412 63 0 -14.7157 86.8843 3 41 986 -14.8000 86.3000 30 50 985 4.00000 134 4 5 -14.8907 86.9412 TC 63 10 278
1996007S10100 1996 3 SI MM CORYNA:HUBERT 1996-01-10 12:00:00 TS -14.7769 86.4319 40 987 reunion main 2009 2009 O____OP_____O_ jtwc_sh SH071996 -14.8000 86.6000 60 0 -14.7000 86.5000 3 40 987 2.50000 3.50000 -14.8078 86.0274 30 43 988 134 -14.8000 86.6000 TC 60 10 279
1996007S10100 1996 3 SI MM CORYNA:HUBERT 1996-01-10 13:00:00 TS -14.7454 86.2626 main 2009 2009 P____PO_____P_ SH071996 -14.7530 86.4250 58 0 -14.6755 86.3004 3 39 987 -14.8000 85.9000 30 40 990 4.00000 134 3 5 -14.7530 86.4250 TC 58 11 282
1996007S10100 1996 3 SI MM CORYNA:HUBERT 1996-01-10 15:00:00 TS -14.6615 85.8763 main 2040 2039 P____PP_____P_ SH071996 -14.6499 86.0650 55 0 -14.6075 85.8723 3 37 989 -14.7388 85.5029 30 40 990 116 -14.6499 86.0650 TC 55 12 283
1996007S10100 1996 3 SI MM CORYNA:HUBERT 1996-01-10 16:00:00 TS -14.6161 85.6774 main 2047 2047 P____PO_____P_ SH071996 -14.5974 85.8800 53 0 -14.5696 85.6495 3 36 989 -14.7000 85.3000 30 40 990 4.00000 107 3 5 -14.5974 85.8800 TC 53 12 283
1996007S10100 1996 3 SI MM CORYNA:HUBERT 1996-01-10 18:00:00 TS -14.5333 85.2903 35 991 reunion main 2071 2071 O____OP_____O_ jtwc_sh SH071996 -14.5000 85.5000 50 0 -14.5000 85.2000 3 35 991 2.50000 3.00000 -14.6333 84.9613 30 40 990 107 -14.5000 85.5000 TC 50 11 282
1996007S10100 1996 3 SI MM CORYNA:HUBERT 1996-01-10 19:00:00 TS -14.4959 85.0974 main 2087 2087 P____PO_____P_ SH071996 -14.4557 85.3057 49 0 -14.4723 84.9781 3 34 991 -14.6000 84.8000 30 40 990 3.50000 107 3 5 -14.4557 85.3057 TC 49 12 280
1996007S10100 1996 3 SI MM CORYNA:HUBERT 1996-01-10 21:00:00 TS -14.4289 84.7042 main 2112 2112 P____PP_____P_ SH071996 -14.3774 84.9075 47 0 -14.4274 84.5350 3 32 993 -14.5333 84.4667 30 40 990 107 -14.3774 84.9075 TC 47 12 279
1996007S10100 1996 3 SI MM CORYNA:HUBERT 1996-01-10 22:00:00 TS -14.4007 84.5071 main 2128 2128 P____PO_____P_ SH071996 -14.3453 84.7054 46 0 -14.4120 84.3175 3 31 993 -14.5000 84.3000 30 40 990 3.50000 107 3 5 -14.3453 84.7054 TC 46 11 277
1996007S10100 1996 3 SI MM CORYNA:HUBERT 1996-01-11 00:00:00 TS -14.3563 84.1186 30 995 reunion main 2161 2161 O____OP_____O_ jtwc_sh SH071996 -14.3000 84.3000 45 0 -14.4000 83.9000 2 30 995 2.50000 2.50000 -14.4254 83.9746 30 40 990 107 -14.3000 84.3000 TC 45 11 276
1996007S10100 1996 3 SI MM CORYNA:HUBERT 1996-01-11 01:00:00 TS -14.3429 83.9316 main 2170 2170 P____PO_____P_ SH071996 -14.2832 84.1079 43 0 -14.4051 83.7105 2 30 995 -14.4000 83.8000 30 40 990 3.00000 107 4 5 -14.2832 84.1079 TC 43 11 272
1996007S10100 1996 3 SI MM CORYNA:HUBERT 1996-01-11 03:00:00 TS -14.3382 83.5521 main 2196 2196 P____PP_____P_ SH071996 -14.2697 83.7225 40 0 -14.4347 83.3501 2 30 996 -14.3787 83.4133 30 36 993 107 -14.2697 83.7225 TC 40 11 269
1996007S10100 1996 3 SI MM CORYNA:HUBERT 1996-01-11 04:00:00 TS -14.3504 83.3547 main 2219 2219 P____PO_____P_ SH071996 -14.2730 83.5237 38 0 -14.4555 83.1717 2 30 996 -14.4000 83.2000 30 35 995 3.00000 107 4 5 -14.2730 83.5237 TC 38 12 263
1996007S10100 1996 3 SI MM CORYNA:HUBERT 1996-01-11 06:00:00 TS -14.4076 82.9347 30 997 reunion main 2262 2262 O____OP_____O_ jtwc_sh SH071996 -14.3000 83.1000 35 0 -14.5000 82.8000 2 30 997 2.00000 2.50000 -14.5304 82.7388 30 35 995 107 -14.3000 83.1000 TC 35 13 262
1996007S10100 1996 3 SI MM CORYNA:HUBERT 1996-01-11 07:00:00 TS -14.4414 82.7106 main 2279 2279 P____PO_____P_ SH071996 -14.3245 82.8672 34 0 -14.5165 82.6078 2 30 997 -14.6000 82.5000 30 35 995 3.00000 107 4 5 -14.3245 82.8672 TC 34 14 262
1996007S10100 1996 3 SI MM CORYNA:HUBERT 1996-01-11 09:00:00 TS -14.5016 82.2453 main 2292 2290 P____PP_____P_ SH071996 -14.3925 82.3727 32 -1 -14.5496 82.2024 2 30 997 -14.6721 82.0333 30 35 995 107 -14.3925 82.3727 TC 32 14 262
1996007S10100 1996 3 SI MM CORYNA:HUBERT 1996-01-11 10:00:00 TS -14.5317 82.0041 main 2290 2289 P____PO_____P_ SH071996 -14.4303 82.1164 31 -1 -14.5663 81.9836 2 30 997 -14.7000 81.8000 30 35 995 3.00000 107 3 5 -14.4303 82.1164 TC 31 14 263
1996007S10100 1996 3 SI MM CORYNA:HUBERT 1996-01-11 12:00:00 TS -14.5936 81.5083 30 998 reunion main 2298 2297 O____OP_____O_ jtwc_sh SH071996 -14.5000 81.6000 30 -1 -14.6000 81.5000 2 30 998 1.50000 2.50000 -14.7745 81.3334 30 31 996 107 -14.5000 81.6000 TC 30 15 263
1996007S10100 1996 3 SI MM CORYNA:HUBERT 1996-01-11 13:00:00 TS -14.6140 81.2590 main 2297 2296 P____PO_____P_ SH071996 -14.5222 81.3526 30 -1 -14.6114 81.2311 2 30 998 -14.8000 81.1000 20 30 998 3.00000 107 3 5 -14.5222 81.3526 TC 30 15 267
1996007S10100 1996 3 SI MM CORYNA:HUBERT 1996-01-11 15:00:00 TS -14.6367 80.7482 main 2296 2296 P____PP_____P_ SH071996 -14.5572 80.8574 30 -1 -14.6350 80.6447 2 30 998 -14.7975 80.6333 20 30 998 107 -14.5572 80.8574 TC 30 15 267
1996007S10100 1996 3 SI MM CORYNA:HUBERT 1996-01-11 16:00:00 TS -14.6486 80.4876 main 2296 2296 P____PO_____P_ SH071996 -14.5718 80.6078 30 -1 -14.6508 80.3348 2 30 998 -14.8000 80.4000 20 30 998 3.00000 107 3 5 -14.5718 80.6078 TC 30 15 266
1996007S10100 1996 3 SI MM CORYNA:HUBERT 1996-01-11 18:00:00 TS -14.6923 79.9583 30 998 reunion main 2308 2308 O____OP_____O_ jtwc_sh SH071996 -14.6000 80.1000 30 -1 -14.7000 79.7000 2 30 998 2.00000 2.50000 -14.8691 79.9334 20 30 998 107 -14.6000 80.1000 TC 30 15 265
1996007S10100 1996 3 SI MM CORYNA:HUBERT 1996-01-11 19:00:00 TS -14.7168 79.6906 main 2309 2309 P____PO_____P_ SH071996 -14.6152 79.8402 29 -1 -14.7366 79.3818 2 30 998 -14.9000 79.7000 20 30 998 3.00000 107 3 5 -14.6152 79.8402 TC 29 16 265
1996007S10100 1996 3 SI MM CORYNA:HUBERT 1996-01-11 21:00:00 TS -14.7670 79.1568 main 2324 2318 P____PP_____P_ SH071996 -14.6481 79.3101 27 -1 -14.8306 78.7480 2 30 999 -14.8975 79.2333 20 30 998 107 -14.6481 79.3101 TC 27 15 264
1996007S10100 1996 3 SI MM CORYNA:HUBERT 1996-01-11 22:00:00 TS -14.8031 78.9029 main 2318 2263 P____PO_____P_ SH071996 -14.6653 79.0414 26 -1 -14.8849 78.4318 2 30 999 -14.9000 79.0000 20 30 998 3.00000 107 3 5 -14.6653 79.0414 TC 26 15 260
1996007S10100 1996 3 SI MM CORYNA:HUBERT 1996-01-12 00:00:00 TS -14.8966 78.4191 30 1000 reunion main 2263 2250 O____OP_____O_ jtwc_sh SH071996 -14.7000 78.5000 25 -1 -15.0000 77.8000 2 30 1000 2.00000 2.00000 -14.9691 78.5334 20 30 999 89 -14.7000 78.5000 TC 25 12 251
1996007S10100 1996 3 SI MM CORYNA:HUBERT 1996-01-12 01:00:00 NR -15.0000 78.3000 main 2250 2209 ______O_______ SH071996 -1 2 -15.0000 78.3000 20 30 1000 2.50000 80 1 5 TC 12 259
1996007S10100 1996 3 SI MM CORYNA:HUBERT 1996-01-12 03:00:00 NR -15.0054 77.8333 main 2199 2178 ______P_______ SH071996 -1 2 -15.0054 77.8333 20 30 1000 80 TC 14 270
1996007S10100 1996 3 SI MM CORYNA:HUBERT 1996-01-12 04:00:00 NR -15.0000 77.6000 main 2178 2138 ______O_______ SH071996 -1 2 -15.0000 77.6000 20 30 1000 2.50000 80 1 5 TC 14 270
1996007S10100 1996 3 SI MM CORYNA:HUBERT 1996-01-12 06:00:00 NR -15.0000 77.1333 main 2127 2107 ______P_______ -1 -15.0000 77.1333 20 30 1000 80 14 270
1996007S10100 1996 3 SI MM CORYNA:HUBERT 1996-01-12 07:00:00 NR -15.0000 76.9000 main 2107 2066 ______O_______ -1 -15.0000 76.9000 20 30 1000 2.50000 80 1 5 14 270
1996007S10100 1996 3 SI MM CORYNA:HUBERT 1996-01-12 09:00:00 NR -15.0000 76.4333 main 2056 2036 ______P_______ -1 -15.0000 76.4333 20 30 1000 80 14 270
1996007S10100 1996 3 SI MM CORYNA:HUBERT 1996-01-12 10:00:00 NR -15.0000 76.2000 main 2036 1996 ______O_______ -1 -15.0000 76.2000 20 30 1000 2.50000 80 1 5 14 270
1996007S10100 1996 3 SI MM CORYNA:HUBERT 1996-01-12 12:00:00 NR -15.0001 75.7333 main 1986 1965 ______P_______ -1 -15.0001 75.7333 20 26 1002 80 14 270
1996007S10100 1996 3 SI MM CORYNA:HUBERT 1996-01-12 13:00:00 NR -15.0000 75.5000 main 1965 ______O_______ -1 -15.0000 75.5000 20 25 1004 2.50000 80 1 5 14 270

About IBTrACS Database

This database is a web-friendly format of International Best Track Archive for Climate Stewardship (IBTrACS), a global best track data archive curated by NOAA dating back to 1842.

Updated: 2021-12-03